sensor_id;sensor_type;location;lat;lon;timestamp;pressure;altitude;pressure_sealevel;temperature
13304;BMP280;6720;51.958;4.540;2023-02-22T00:00:28;101346.78;;;7.65
13304;BMP280;6720;51.958;4.540;2023-02-22T00:03:11;101344.22;;;7.82
13304;BMP280;6720;51.958;4.540;2023-02-22T00:05:39;101340.78;;;7.91
13304;BMP280;6720;51.958;4.540;2023-02-22T00:08:06;101347.72;;;7.81
13304;BMP280;6720;51.958;4.540;2023-02-22T00:10:36;101343.38;;;7.77
13304;BMP280;6720;51.958;4.540;2023-02-22T00:13:07;101351.13;;;7.66
13304;BMP280;6720;51.958;4.540;2023-02-22T00:15:33;101354.59;;;7.64
13304;BMP280;6720;51.958;4.540;2023-02-22T00:17:59;101353.72;;;7.66
13304;BMP280;6720;51.958;4.540;2023-02-22T00:20:25;101329.41;;;7.58
13304;BMP280;6720;51.958;4.540;2023-02-22T00:22:51;101327.69;;;7.60
13304;BMP280;6720;51.958;4.540;2023-02-22T00:25:19;101339.84;;;7.61
13304;BMP280;6720;51.958;4.540;2023-02-22T00:27:46;101345.84;;;7.42
13304;BMP280;6720;51.958;4.540;2023-02-22T00:30:23;101351.97;;;7.53
13304;BMP280;6720;51.958;4.540;2023-02-22T00:32:51;101344.88;;;7.25
13304;BMP280;6720;51.958;4.540;2023-02-22T00:35:19;101346.66;;;7.28
13304;BMP280;6720;51.958;4.540;2023-02-22T00:37:52;101346.69;;;7.35
13304;BMP280;6720;51.958;4.540;2023-02-22T00:40:21;101347.56;;;7.40
13304;BMP280;6720;51.958;4.540;2023-02-22T00:42:47;101327.59;;;7.33
13304;BMP280;6720;51.958;4.540;2023-02-22T00:45:16;101342.41;;;7.49
13304;BMP280;6720;51.958;4.540;2023-02-22T00:47:41;101336.28;;;7.38
13304;BMP280;6720;51.958;4.540;2023-02-22T00:50:07;101336.31;;;7.47
13304;BMP280;6720;51.958;4.540;2023-02-22T00:52:34;101333.69;;;7.38
13304;BMP280;6720;51.958;4.540;2023-02-22T00:55:00;101330.19;;;7.39
13304;BMP280;6720;51.958;4.540;2023-02-22T00:57:26;101329.28;;;7.28
13304;BMP280;6720;51.958;4.540;2023-02-22T00:59:51;101333.66;;;7.34
13304;BMP280;6720;51.958;4.540;2023-02-22T01:02:17;101326.69;;;7.30
13304;BMP280;6720;51.958;4.540;2023-02-22T01:04:42;101328.44;;;7.26
13304;BMP280;6720;51.958;4.540;2023-02-22T01:07:08;101328.38;;;7.20
13304;BMP280;6720;51.958;4.540;2023-02-22T01:09:33;101329.22;;;7.15
13304;BMP280;6720;51.958;4.540;2023-02-22T01:12:00;101314.44;;;7.06
13304;BMP280;6720;51.958;4.540;2023-02-22T01:14:26;101324.00;;;7.13
13304;BMP280;6720;51.958;4.540;2023-02-22T01:16:55;101315.38;;;7.23
13304;BMP280;6720;51.958;4.540;2023-02-22T01:19:22;101324.94;;;7.18
13304;BMP280;6720;51.958;4.540;2023-02-22T01:21:48;101324.84;;;7.06
13304;BMP280;6720;51.958;4.540;2023-02-22T01:24:15;101321.38;;;7.10
13304;BMP280;6720;51.958;4.540;2023-02-22T01:26:47;101310.16;;;7.13
13304;BMP280;6720;51.958;4.540;2023-02-22T01:29:14;101309.22;;;7.06
13304;BMP280;6720;51.958;4.540;2023-02-22T01:31:41;101307.56;;;7.14
13304;BMP280;6720;51.958;4.540;2023-02-22T01:34:10;101303.97;;;6.97
13304;BMP280;6720;51.958;4.540;2023-02-22T01:36:35;101301.41;;;7.02
13304;BMP280;6720;51.958;4.540;2023-02-22T01:39:01;101304.78;;;6.87
13304;BMP280;6720;51.958;4.540;2023-02-22T01:41:27;101297.06;;;6.96
13304;BMP280;6720;51.958;4.540;2023-02-22T01:43:52;101294.31;;;6.77
13304;BMP280;6720;51.958;4.540;2023-02-22T01:46:25;101299.50;;;6.72
13304;BMP280;6720;51.958;4.540;2023-02-22T01:48:55;101301.28;;;6.75
13304;BMP280;6720;51.958;4.540;2023-02-22T01:51:26;101297.75;;;6.70
13304;BMP280;6720;51.958;4.540;2023-02-22T01:53:56;101289.84;;;6.49
13304;BMP280;6720;51.958;4.540;2023-02-22T01:56:24;101289.06;;;6.66
13304;BMP280;6720;51.958;4.540;2023-02-22T01:58:53;101286.44;;;6.62
13304;BMP280;6720;51.958;4.540;2023-02-22T02:01:22;101288.19;;;6.67
13304;BMP280;6720;51.958;4.540;2023-02-22T02:03:48;101277.00;;;6.77
13304;BMP280;6720;51.958;4.540;2023-02-22T02:06:15;101274.44;;;6.86
13304;BMP280;6720;51.958;4.540;2023-02-22T02:11:21;101268.28;;;6.72
13304;BMP280;6720;51.958;4.540;2023-02-22T02:13:54;101269.03;;;6.55
13304;BMP280;6720;51.958;4.540;2023-02-22T02:16:21;101255.16;;;6.51
13304;BMP280;6720;51.958;4.540;2023-02-22T02:18:47;101267.34;;;6.57
13304;BMP280;6720;51.958;4.540;2023-02-22T02:27:17;101262.16;;;6.58
13304;BMP280;6720;51.958;4.540;2023-02-22T02:32:23;101257.84;;;6.66
13304;BMP280;6720;51.958;4.540;2023-02-22T02:42:39;101238.75;;;6.58
13304;BMP280;6720;51.958;4.540;2023-02-22T02:45:11;101242.16;;;6.51
13304;BMP280;6720;51.958;4.540;2023-02-22T02:47:41;101232.69;;;6.61
13304;BMP280;6720;51.958;4.540;2023-02-22T02:50:14;101226.56;;;6.53
13304;BMP280;6720;51.958;4.540;2023-02-22T02:52:41;101210.88;;;6.42
13304;BMP280;6720;51.958;4.540;2023-02-22T02:55:34;101220.34;;;6.31
13304;BMP280;6720;51.958;4.540;2023-02-22T02:59:17;101220.38;;;6.33
13304;BMP280;6720;51.958;4.540;2023-02-22T03:02:48;101198.63;;;6.23
13304;BMP280;6720;51.958;4.540;2023-02-22T03:11:52;101195.22;;;6.30
13304;BMP280;6720;51.958;4.540;2023-02-22T03:14:36;101198.63;;;6.17
13304;BMP280;6720;51.958;4.540;2023-02-22T03:17:55;101201.31;;;6.32
13304;BMP280;6720;51.958;4.540;2023-02-22T03:20:30;101190.00;;;6.27
13304;BMP280;6720;51.958;4.540;2023-02-22T03:23:03;101181.41;;;6.40
13304;BMP280;6720;51.958;4.540;2023-02-22T03:25:40;101181.47;;;6.49
13304;BMP280;6720;51.958;4.540;2023-02-22T03:28:09;101158.06;;;6.52
13304;BMP280;6720;51.958;4.540;2023-02-22T03:30:46;101175.47;;;6.61
13304;BMP280;6720;51.958;4.540;2023-02-22T03:33:38;101169.38;;;6.63
13304;BMP280;6720;51.958;4.540;2023-02-22T03:36:18;101165.81;;;6.40
13304;BMP280;6720;51.958;4.540;2023-02-22T03:38:45;101170.16;;;6.41
13304;BMP280;6720;51.958;4.540;2023-02-22T03:41:13;101169.25;;;6.33
13304;BMP280;6720;51.958;4.540;2023-02-22T03:43:45;101158.06;;;6.51
13304;BMP280;6720;51.958;4.540;2023-02-22T03:46:12;101157.22;;;6.50
13304;BMP280;6720;51.958;4.540;2023-02-22T03:51:30;101144.13;;;6.38
13304;BMP280;6720;51.958;4.540;2023-02-22T03:53:56;101146.75;;;6.44
13304;BMP280;6720;51.958;4.540;2023-02-22T03:56:26;101141.59;;;6.50
13304;BMP280;6720;51.958;4.540;2023-02-22T03:58:53;101126.88;;;6.54
13304;BMP280;6720;51.958;4.540;2023-02-22T04:01:19;101128.56;;;6.43
13304;BMP280;6720;51.958;4.540;2023-02-22T04:03:47;101127.63;;;6.30
13304;BMP280;6720;51.958;4.540;2023-02-22T04:06:13;101121.56;;;6.28
13304;BMP280;6720;51.958;4.540;2023-02-22T04:08:38;101126.78;;;6.37
13304;BMP280;6720;51.958;4.540;2023-02-22T04:11:03;101121.63;;;6.43
13304;BMP280;6720;51.958;4.540;2023-02-22T04:13:29;101111.13;;;6.24
13304;BMP280;6720;51.958;4.540;2023-02-22T04:15:54;101105.13;;;6.35
13304;BMP280;6720;51.958;4.540;2023-02-22T04:18:20;101107.75;;;6.43
13304;BMP280;6720;51.958;4.540;2023-02-22T04:20:45;101103.41;;;6.46
13304;BMP280;6720;51.958;4.540;2023-02-22T04:23:11;101115.59;;;6.53
13304;BMP280;6720;51.958;4.540;2023-02-22T04:25:36;101108.63;;;6.46
13304;BMP280;6720;51.958;4.540;2023-02-22T04:28:02;101104.22;;;6.24
13304;BMP280;6720;51.958;4.540;2023-02-22T04:30:27;101104.97;;;6.08
13304;BMP280;6720;51.958;4.540;2023-02-22T04:32:55;101111.19;;;6.30
13304;BMP280;6720;51.958;4.540;2023-02-22T04:35:20;101103.38;;;6.28
13304;BMP280;6720;51.958;4.540;2023-02-22T04:37:46;101107.66;;;6.17
13304;BMP280;6720;51.958;4.540;2023-02-22T04:40:11;101081.66;;;6.20
13304;BMP280;6720;51.958;4.540;2023-02-22T04:42:37;101101.56;;;6.17
13304;BMP280;6720;51.958;4.540;2023-02-22T04:45:04;101104.16;;;6.17
13304;BMP280;6720;51.958;4.540;2023-02-22T04:47:30;101092.13;;;6.34
13304;BMP280;6720;51.958;4.540;2023-02-22T04:49:55;101092.97;;;6.31
13304;BMP280;6720;51.958;4.540;2023-02-22T04:52:21;101086.09;;;6.39
13304;BMP280;6720;51.958;4.540;2023-02-22T04:54:46;101073.06;;;6.35
13304;BMP280;6720;51.958;4.540;2023-02-22T04:57:12;101084.34;;;6.35
13304;BMP280;6720;51.958;4.540;2023-02-22T04:59:38;101084.31;;;6.29
13304;BMP280;6720;51.958;4.540;2023-02-22T05:02:03;101094.66;;;6.17
13304;BMP280;6720;51.958;4.540;2023-02-22T05:04:28;101098.09;;;6.13
13304;BMP280;6720;51.958;4.540;2023-02-22T05:06:54;101087.78;;;6.28
13304;BMP280;6720;51.958;4.540;2023-02-22T05:09:19;101089.47;;;6.20
13304;BMP280;6720;51.958;4.540;2023-02-22T05:11:45;101091.19;;;6.20
13304;BMP280;6720;51.958;4.540;2023-02-22T05:14:10;101086.81;;;6.14
13304;BMP280;6720;51.958;4.540;2023-02-22T05:16:36;101093.75;;;6.09
13304;BMP280;6720;51.958;4.540;2023-02-22T05:19:02;101076.47;;;6.17
13304;BMP280;6720;51.958;4.540;2023-02-22T05:21:28;101057.41;;;6.21
13304;BMP280;6720;51.958;4.540;2023-02-22T05:23:53;101063.47;;;6.17
13304;BMP280;6720;51.958;4.540;2023-02-22T05:26:19;101072.16;;;6.31
13304;BMP280;6720;51.958;4.540;2023-02-22T05:28:44;101060.00;;;6.20
13304;BMP280;6720;51.958;4.540;2023-02-22T05:31:09;101072.16;;;6.25
13304;BMP280;6720;51.958;4.540;2023-02-22T05:33:35;101069.53;;;6.24
13304;BMP280;6720;51.958;4.540;2023-02-22T05:36:00;101053.91;;;6.16
13304;BMP280;6720;51.958;4.540;2023-02-22T05:38:26;101071.28;;;6.20
13304;BMP280;6720;51.958;4.540;2023-02-22T05:40:51;101064.34;;;6.25
13304;BMP280;6720;51.958;4.540;2023-02-22T05:43:17;101054.84;;;6.32
13304;BMP280;6720;51.958;4.540;2023-02-22T05:45:43;101041.81;;;6.21
13304;BMP280;6720;51.958;4.540;2023-02-22T05:48:08;101034.03;;;6.27
13304;BMP280;6720;51.958;4.540;2023-02-22T05:50:33;101048.75;;;6.25
13304;BMP280;6720;51.958;4.540;2023-02-22T05:52:59;101046.19;;;6.28
13304;BMP280;6720;51.958;4.540;2023-02-22T05:55:25;101025.41;;;6.37
13304;BMP280;6720;51.958;4.540;2023-02-22T05:57:51;101028.88;;;6.45
13304;BMP280;6720;51.958;4.540;2023-02-22T06:00:20;101021.09;;;6.57
13304;BMP280;6720;51.958;4.540;2023-02-22T06:03:02;101006.41;;;6.61
13304;BMP280;6720;51.958;4.540;2023-02-22T06:05:28;101003.78;;;6.68
13304;BMP280;6720;51.958;4.540;2023-02-22T06:07:55;101012.47;;;6.72
13304;BMP280;6720;51.958;4.540;2023-02-22T06:10:21;101008.13;;;6.63
13304;BMP280;6720;51.958;4.540;2023-02-22T06:12:48;101008.13;;;6.75
13304;BMP280;6720;51.958;4.540;2023-02-22T06:15:15;100999.47;;;6.76
13304;BMP280;6720;51.958;4.540;2023-02-22T06:17:40;100996.00;;;6.71
13304;BMP280;6720;51.958;4.540;2023-02-22T06:20:09;100996.88;;;6.70
13304;BMP280;6720;51.958;4.540;2023-02-22T06:22:35;100993.38;;;6.61
13304;BMP280;6720;51.958;4.540;2023-02-22T06:25:04;100994.25;;;6.63
13304;BMP280;6720;51.958;4.540;2023-02-22T06:27:31;101001.22;;;6.65
13304;BMP280;6720;51.958;4.540;2023-02-22T06:29:58;101006.41;;;6.71
13304;BMP280;6720;51.958;4.540;2023-02-22T06:32:24;101006.38;;;6.47
13304;BMP280;6720;51.958;4.540;2023-02-22T06:34:49;100997.63;;;6.18
13304;BMP280;6720;51.958;4.540;2023-02-22T06:37:14;101024.47;;;6.22
13304;BMP280;6720;51.958;4.540;2023-02-22T06:39:40;101023.59;;;6.18
13304;BMP280;6720;51.958;4.540;2023-02-22T06:42:05;101019.28;;;6.19
13304;BMP280;6720;51.958;4.540;2023-02-22T06:44:31;101022.78;;;6.33
13304;BMP280;6720;51.958;4.540;2023-02-22T06:46:57;101011.56;;;6.53
13304;BMP280;6720;51.958;4.540;2023-02-22T06:49:24;100997.72;;;6.63
13304;BMP280;6720;51.958;4.540;2023-02-22T06:51:51;101011.59;;;6.62
13304;BMP280;6720;51.958;4.540;2023-02-22T06:54:16;101020.28;;;6.73
13304;BMP280;6720;51.958;4.540;2023-02-22T06:56:41;101028.94;;;6.65
13304;BMP280;6720;51.958;4.540;2023-02-22T06:59:07;101013.31;;;6.72
13304;BMP280;6720;51.958;4.540;2023-02-22T07:01:32;101008.16;;;6.78
13304;BMP280;6720;51.958;4.540;2023-02-22T07:03:58;101008.97;;;6.67
13304;BMP280;6720;51.958;4.540;2023-02-22T07:06:23;101022.84;;;6.66
13304;BMP280;6720;51.958;4.540;2023-02-22T07:08:49;101027.22;;;6.62
13304;BMP280;6720;51.958;4.540;2023-02-22T07:11:15;101038.44;;;6.49
13304;BMP280;6720;51.958;4.540;2023-02-22T07:13:43;101049.75;;;6.63
13304;BMP280;6720;51.958;4.540;2023-02-22T07:16:08;101035.03;;;6.65
13304;BMP280;6720;51.958;4.540;2023-02-22T07:18:34;101039.34;;;6.69
13304;BMP280;6720;51.958;4.540;2023-02-22T07:20:59;101023.75;;;6.80
13304;BMP280;6720;51.958;4.540;2023-02-22T07:23:25;101017.69;;;6.79
13304;BMP280;6720;51.958;4.540;2023-02-22T07:25:51;101035.00;;;6.62
13304;BMP280;6720;51.958;4.540;2023-02-22T07:28:16;101023.72;;;6.63
13304;BMP280;6720;51.958;4.540;2023-02-22T07:30:42;101038.50;;;6.70
13304;BMP280;6720;51.958;4.540;2023-02-22T07:33:09;101039.31;;;6.60
13304;BMP280;6720;51.958;4.540;2023-02-22T07:35:38;101041.94;;;6.63
13304;BMP280;6720;51.958;4.540;2023-02-22T07:38:05;101042.81;;;6.68
13304;BMP280;6720;51.958;4.540;2023-02-22T07:40:33;101038.47;;;6.60
13304;BMP280;6720;51.958;4.540;2023-02-22T07:43:01;101041.06;;;6.64
13304;BMP280;6720;51.958;4.540;2023-02-22T07:45:29;101018.53;;;6.66
13304;BMP280;6720;51.958;4.540;2023-02-22T07:47:55;101051.53;;;6.85
13304;BMP280;6720;51.958;4.540;2023-02-22T07:50:22;101035.06;;;6.92
13304;BMP280;6720;51.958;4.540;2023-02-22T07:52:51;101038.53;;;6.99
13304;BMP280;6720;51.958;4.540;2023-02-22T07:55:20;101041.13;;;7.00
13304;BMP280;6720;51.958;4.540;2023-02-22T07:57:47;101035.03;;;6.83
13304;BMP280;6720;51.958;4.540;2023-02-22T08:00:14;101042.84;;;6.77
13304;BMP280;6720;51.958;4.540;2023-02-22T08:02:41;101028.97;;;6.80
13304;BMP280;6720;51.958;4.540;2023-02-22T08:05:08;101020.28;;;6.76
13304;BMP280;6720;51.958;4.540;2023-02-22T08:07:35;101021.19;;;6.99
13304;BMP280;6720;51.958;4.540;2023-02-22T08:10:01;101016.81;;;7.10
13304;BMP280;6720;51.958;4.540;2023-02-22T08:12:33;101011.63;;;7.19
13304;BMP280;6720;51.958;4.540;2023-02-22T08:14:59;101013.34;;;7.20
13304;BMP280;6720;51.958;4.540;2023-02-22T08:17:25;101000.34;;;7.25
13304;BMP280;6720;51.958;4.540;2023-02-22T08:19:50;100992.53;;;7.11
13304;BMP280;6720;51.958;4.540;2023-02-22T08:22:15;101000.34;;;7.23
13304;BMP280;6720;51.958;4.540;2023-02-22T08:24:41;101003.81;;;7.36
13304;BMP280;6720;51.958;4.540;2023-02-22T08:27:06;100994.25;;;7.33
13304;BMP280;6720;51.958;4.540;2023-02-22T08:29:32;100990.78;;;7.34
13304;BMP280;6720;51.958;4.540;2023-02-22T08:31:59;100997.75;;;7.29
13304;BMP280;6720;51.958;4.540;2023-02-22T08:34:25;100988.19;;;7.34
13304;BMP280;6720;51.958;4.540;2023-02-22T08:36:51;100996.81;;;7.59
13304;BMP280;6720;51.958;4.540;2023-02-22T08:39:16;100970.75;;;7.54
13304;BMP280;6720;51.958;4.540;2023-02-22T08:41:45;100956.84;;;7.66
13304;BMP280;6720;51.958;4.540;2023-02-22T08:44:10;100984.56;;;7.84
13304;BMP280;6720;51.958;4.540;2023-02-22T08:46:35;100981.09;;;7.88
13304;BMP280;6720;51.958;4.540;2023-02-22T08:49:01;100971.50;;;7.90
13304;BMP280;6720;51.958;4.540;2023-02-22T08:51:27;100968.94;;;7.85
13304;BMP280;6720;51.958;4.540;2023-02-22T08:53:53;100954.19;;;7.77
13304;BMP280;6720;51.958;4.540;2023-02-22T08:56:19;100966.34;;;7.84
13304;BMP280;6720;51.958;4.540;2023-02-22T08:58:44;100967.16;;;7.89
13304;BMP280;6720;51.958;4.540;2023-02-22T09:01:10;100970.66;;;7.83
13304;BMP280;6720;51.958;4.540;2023-02-22T09:03:35;100961.13;;;7.87
13304;BMP280;6720;51.958;4.540;2023-02-22T09:06:01;100958.47;;;7.96
13304;BMP280;6720;51.958;4.540;2023-02-22T09:08:27;100959.28;;;8.07
13304;BMP280;6720;51.958;4.540;2023-02-22T09:10:52;100952.34;;;8.01
13304;BMP280;6720;51.958;4.540;2023-02-22T09:13:18;100959.28;;;8.01
13304;BMP280;6720;51.958;4.540;2023-02-22T09:15:43;100951.44;;;8.10
13304;BMP280;6720;51.958;4.540;2023-02-22T09:18:11;100937.53;;;8.08
13304;BMP280;6720;51.958;4.540;2023-02-22T09:20:38;100938.34;;;8.19
13304;BMP280;6720;51.958;4.540;2023-02-22T09:23:05;100958.47;;;7.96
13304;BMP280;6720;51.958;4.540;2023-02-22T09:25:31;100950.63;;;7.96
13304;BMP280;6720;51.958;4.540;2023-02-22T09:27:58;100973.28;;;7.88
13304;BMP280;6720;51.958;4.540;2023-02-22T09:30:32;100967.16;;;7.95
13304;BMP280;6720;51.958;4.540;2023-02-22T09:33:01;100964.56;;;7.86
13304;BMP280;6720;51.958;4.540;2023-02-22T09:35:27;100955.91;;;7.81
13304;BMP280;6720;51.958;4.540;2023-02-22T09:37:54;100993.22;;;7.98
13304;BMP280;6720;51.958;4.540;2023-02-22T09:40:21;100983.69;;;7.94
13304;BMP280;6720;51.958;4.540;2023-02-22T09:43:16;100983.69;;;7.94
13304;BMP280;6720;51.958;4.540;2023-02-22T09:48:24;101006.19;;;8.10
13304;BMP280;6720;51.958;4.540;2023-02-22T09:50:52;100999.28;;;8.04
13304;BMP280;6720;51.958;4.540;2023-02-22T09:53:34;100994.84;;;8.24
13304;BMP280;6720;51.958;4.540;2023-02-22T09:56:07;100955.75;;;8.23
13304;BMP280;6720;51.958;4.540;2023-02-22T09:58:47;100947.91;;;8.26
13304;BMP280;6720;51.958;4.540;2023-02-22T10:01:29;100952.22;;;8.33
13304;BMP280;6720;51.958;4.540;2023-02-22T10:04:22;100952.22;;;8.33
13304;BMP280;6720;51.958;4.540;2023-02-22T10:07:31;100960.94;;;8.32
13304;BMP280;6720;51.958;4.540;2023-02-22T10:09:58;100973.97;;;8.26
13304;BMP280;6720;51.958;4.540;2023-02-22T10:12:40;100980.91;;;8.27
13304;BMP280;6720;51.958;4.540;2023-02-22T10:15:41;100975.56;;;8.52
13304;BMP280;6720;51.958;4.540;2023-02-22T10:26:11;100983.34;;;8.58
13304;BMP280;6720;51.958;4.540;2023-02-22T10:28:42;100978.81;;;8.83
13304;BMP280;6720;51.958;4.540;2023-02-22T10:31:19;100978.72;;;8.93
13304;BMP280;6720;51.958;4.540;2023-02-22T10:33:52;100972.56;;;9.02
13304;BMP280;6720;51.958;4.540;2023-02-22T10:36:22;100959.59;;;8.93
13304;BMP280;6720;51.958;4.540;2023-02-22T10:39:24;100979.34;;;9.21
13304;BMP280;6720;51.958;4.540;2023-02-22T10:41:48;100977.44;;;9.41
13304;BMP280;6720;51.958;4.540;2023-02-22T10:44:15;100978.25;;;9.44
13304;BMP280;6720;51.958;4.540;2023-02-22T10:46:42;100957.09;;;9.68
13304;BMP280;6720;51.958;4.540;2023-02-22T10:49:09;100961.19;;;9.89
13304;BMP280;6720;51.958;4.540;2023-02-22T10:51:36;100947.13;;;9.99
13304;BMP280;6720;51.958;4.540;2023-02-22T10:56:49;100945.34;;;10.01
13304;BMP280;6720;51.958;4.540;2023-02-22T10:59:34;100946.28;;;9.97
13304;BMP280;6720;51.958;4.540;2023-02-22T11:02:12;100941.19;;;9.85
13304;BMP280;6720;51.958;4.540;2023-02-22T11:07:30;100940.97;;;10.04
13304;BMP280;6720;51.958;4.540;2023-02-22T11:10:01;100934.88;;;10.02
13304;BMP280;6720;51.958;4.540;2023-02-22T11:12:33;100933.13;;;10.03
13304;BMP280;6720;51.958;4.540;2023-02-22T11:17:44;100925.16;;;10.13
13304;BMP280;6720;51.958;4.540;2023-02-22T11:20:19;100919.09;;;10.13
13304;BMP280;6720;51.958;4.540;2023-02-22T11:22:51;100921.59;;;10.19
13304;BMP280;6720;51.958;4.540;2023-02-22T11:25:22;100929.53;;;10.14
13304;BMP280;6720;51.958;4.540;2023-02-22T11:27:49;100926.84;;;10.17
13304;BMP280;6720;51.958;4.540;2023-02-22T11:32:49;100918.88;;;10.28
13304;BMP280;6720;51.958;4.540;2023-02-22T11:35:34;100929.47;;;10.16
13304;BMP280;6720;51.958;4.540;2023-02-22T11:38:23;100920.50;;;10.35
13304;BMP280;6720;51.958;4.540;2023-02-22T11:43:33;100900.16;;;10.52
13304;BMP280;6720;51.958;4.540;2023-02-22T11:46:05;100906.44;;;10.40
13304;BMP280;6720;51.958;4.540;2023-02-22T11:48:34;100908.28;;;10.35
13304;BMP280;6720;51.958;4.540;2023-02-22T11:56:49;100897.00;;;10.85
13304;BMP280;6720;51.958;4.540;2023-02-22T11:59:40;100897.00;;;10.85
13304;BMP280;6720;51.958;4.540;2023-02-22T12:10:46;100889.63;;;10.56
13304;BMP280;6720;51.958;4.540;2023-02-22T12:13:34;100884.69;;;10.90
13304;BMP280;6720;51.958;4.540;2023-02-22T12:18:51;100887.03;;;11.05
13304;BMP280;6720;51.958;4.540;2023-02-22T12:21:22;100880.00;;;11.08
13304;BMP280;6720;51.958;4.540;2023-02-22T12:24:04;100880.03;;;11.07
13304;BMP280;6720;51.958;4.540;2023-02-22T12:26:40;100885.28;;;11.05
13304;BMP280;6720;51.958;4.540;2023-02-22T12:29:30;100885.59;;;10.89
13304;BMP280;6720;51.958;4.540;2023-02-22T12:34:52;100883.72;;;10.95
13304;BMP280;6720;51.958;4.540;2023-02-22T12:37:25;100876.59;;;11.03
13304;BMP280;6720;51.958;4.540;2023-02-22T12:42:55;100878.94;;;11.17
13304;BMP280;6720;51.958;4.540;2023-02-22T12:45:33;100878.88;;;11.20
13304;BMP280;6720;51.958;4.540;2023-02-22T12:50:54;100891.34;;;11.07
13304;BMP280;6720;51.958;4.540;2023-02-22T12:53:28;100882.38;;;11.22
13304;BMP280;6720;51.958;4.540;2023-02-22T12:56:12;100888.47;;;11.21
13304;BMP280;6720;51.958;4.540;2023-02-22T12:59:17;100894.00;;;11.04
13304;BMP280;6720;51.958;4.540;2023-02-22T13:01:57;100889.13;;;11.32
13304;BMP280;6720;51.958;4.540;2023-02-22T13:04:23;100890.19;;;11.23
13304;BMP280;6720;51.958;4.540;2023-02-22T13:07:16;100885.84;;;11.21
13304;BMP280;6720;51.958;4.540;2023-02-22T13:10:02;100887.66;;;11.19
13304;BMP280;6720;51.958;4.540;2023-02-22T13:12:49;100864.97;;;11.18
13304;BMP280;6720;51.958;4.540;2023-02-22T13:18:25;100884.53;;;11.45
13304;BMP280;6720;51.958;4.540;2023-02-22T13:20:55;100893.66;;;11.24
13304;BMP280;6720;51.958;4.540;2023-02-22T13:26:39;100884.13;;;11.20
13304;BMP280;6720;51.958;4.540;2023-02-22T13:29:15;100872.47;;;11.36
13304;BMP280;6720;51.958;4.540;2023-02-22T13:32:27;100883.19;;;11.22
13304;BMP280;6720;51.958;4.540;2023-02-22T13:40:16;100875.25;;;11.27
13304;BMP280;6720;51.958;4.540;2023-02-22T13:51:40;100878.34;;;11.47
13304;BMP280;6720;51.958;4.540;2023-02-22T13:56:49;100882.56;;;11.56
13304;BMP280;6720;51.958;4.540;2023-02-22T13:59:30;100879.16;;;11.51
13304;BMP280;6720;51.958;4.540;2023-02-22T14:01:57;100888.69;;;11.56
13304;BMP280;6720;51.958;4.540;2023-02-22T14:06:59;100883.50;;;11.53
13304;BMP280;6720;51.958;4.540;2023-02-22T14:09:48;100883.50;;;11.53
13304;BMP280;6720;51.958;4.540;2023-02-22T14:17:57;100883.84;;;11.35
13304;BMP280;6720;51.958;4.540;2023-02-22T14:20:35;100892.75;;;11.25
13304;BMP280;6720;51.958;4.540;2023-02-22T14:23:26;100892.75;;;11.25
13304;BMP280;6720;51.958;4.540;2023-02-22T14:25:54;100886.69;;;11.23
13304;BMP280;6720;51.958;4.540;2023-02-22T14:31:19;100883.31;;;11.18
13304;BMP280;6720;51.958;4.540;2023-02-22T14:33:49;100888.41;;;11.25
13304;BMP280;6720;51.958;4.540;2023-02-22T14:36:15;100889.25;;;11.27
13304;BMP280;6720;51.958;4.540;2023-02-22T14:38:43;100894.75;;;11.14
13304;BMP280;6720;51.958;4.540;2023-02-22T14:41:10;100874.13;;;10.96
13304;BMP280;6720;51.958;4.540;2023-02-22T14:43:37;100910.41;;;11.15
13304;BMP280;6720;51.958;4.540;2023-02-22T14:46:03;100912.19;;;11.15
13304;BMP280;6720;51.958;4.540;2023-02-22T14:48:40;100905.31;;;11.08
13304;BMP280;6720;51.958;4.540;2023-02-22T14:53:39;100919.31;;;11.07
13304;BMP280;6720;51.958;4.540;2023-02-22T14:56:14;100918.50;;;11.03
13304;BMP280;6720;51.958;4.540;2023-02-22T15:01:31;100918.66;;;10.94
13304;BMP280;6720;51.958;4.540;2023-02-22T15:04:22;100922.88;;;11.03
13304;BMP280;6720;51.958;4.540;2023-02-22T15:06:51;100925.25;;;11.18
13304;BMP280;6720;51.958;4.540;2023-02-22T15:09:20;100927.78;;;11.21
13304;BMP280;6720;51.958;4.540;2023-02-22T15:11:51;100922.75;;;11.09
13304;BMP280;6720;51.958;4.540;2023-02-22T15:14:23;100937.47;;;11.17
13304;BMP280;6720;51.958;4.540;2023-02-22T15:16:52;100933.91;;;11.21
13304;BMP280;6720;51.958;4.540;2023-02-22T15:19:27;100933.16;;;11.15
13304;BMP280;6720;51.958;4.540;2023-02-22T15:21:55;100924.34;;;11.19
13304;BMP280;6720;51.958;4.540;2023-02-22T15:24:29;100915.75;;;11.11
13304;BMP280;6720;51.958;4.540;2023-02-22T15:27:22;100930.56;;;11.12
13304;BMP280;6720;51.958;4.540;2023-02-22T15:29:47;100931.47;;;11.11
13304;BMP280;6720;51.958;4.540;2023-02-22T15:34:44;100928.25;;;10.95
13304;BMP280;6720;51.958;4.540;2023-02-22T15:37:23;100937.78;;;10.99
13304;BMP280;6720;51.958;4.540;2023-02-22T15:39:50;100933.47;;;10.95
13304;BMP280;6720;51.958;4.540;2023-02-22T15:42:25;100932.53;;;10.99
13304;BMP280;6720;51.958;4.540;2023-02-22T15:44:52;100929.81;;;11.07
13304;BMP280;6720;51.958;4.540;2023-02-22T15:47:24;100932.56;;;10.98
13304;BMP280;6720;51.958;4.540;2023-02-22T15:50:21;100932.56;;;10.98
13304;BMP280;6720;51.958;4.540;2023-02-22T15:55:28;100940.41;;;10.98
13304;BMP280;6720;51.958;4.540;2023-02-22T15:57:58;100941.34;;;10.95
13304;BMP280;6720;51.958;4.540;2023-02-22T16:00:27;100946.50;;;11.00
13304;BMP280;6720;51.958;4.540;2023-02-22T16:03:04;100945.00;;;10.85
13304;BMP280;6720;51.958;4.540;2023-02-22T16:05:37;100948.63;;;10.78
13304;BMP280;6720;51.958;4.540;2023-02-22T16:08:12;100942.69;;;10.67
13304;BMP280;6720;51.958;4.540;2023-02-22T16:10:38;100943.47;;;10.72
13304;BMP280;6720;51.958;4.540;2023-02-22T16:13:28;100939.09;;;10.73
13304;BMP280;6720;51.958;4.540;2023-02-22T16:18:37;100940.09;;;10.66
13304;BMP280;6720;51.958;4.540;2023-02-22T16:21:11;100935.88;;;10.56
13304;BMP280;6720;51.958;4.540;2023-02-22T16:23:45;100943.75;;;10.54
13304;BMP280;6720;51.958;4.540;2023-02-22T16:26:31;100948.97;;;10.54
13304;BMP280;6720;51.958;4.540;2023-02-22T16:29:02;100951.78;;;10.44
13304;BMP280;6720;51.958;4.540;2023-02-22T16:31:38;100944.13;;;10.29
13304;BMP280;6720;51.958;4.540;2023-02-22T16:34:06;100931.22;;;10.18
13304;BMP280;6720;51.958;4.540;2023-02-22T16:36:43;100950.19;;;10.31
13304;BMP280;6720;51.958;4.540;2023-02-22T16:39:23;100944.22;;;10.21
13304;BMP280;6720;51.958;4.540;2023-02-22T16:41:55;100962.47;;;10.29
13304;BMP280;6720;51.958;4.540;2023-02-22T16:44:21;100962.53;;;10.23